Address 0x661ed5bf7686c494c4fdc94daa582b6dad52e954 9

 
 
Txn Hash Method
Block
From
To
Value [Txn Fee]
0xc277bfcec1e42072ddd6e1a5f190be6ccdd4ce446c758354bf7b1a9ab2a943f7Transfer*241331962022-01-25 5:04:51245 days 3 hrs ago0x661ed5bf7686c494c4fdc94daa582b6dad52e954OUT0xa0768dc386712ed355f41d56bdbc05bfbb9c797b0 MATIC0.000731615414 29.793753662
0xe036672e84659b7ef598550b8355c52feed25816a06285e7541b582e28d15f00Mint241166342022-01-24 19:15:40245 days 12 hrs ago0x661ed5bf7686c494c4fdc94daa582b6dad52e954OUT 0x6aa8586b21a7337575895875bdc56266dc981a050 MATIC0.004702300639 146.571305998
0xa2c581b563e3ada9625519a7e76c1fd0cc57f60b98fe17cc28194b4c19fa5058Mint241166312022-01-24 19:15:34245 days 12 hrs ago0x661ed5bf7686c494c4fdc94daa582b6dad52e954OUT 0x6aa8586b21a7337575895875bdc56266dc981a050 MATIC0.035813819192 146.571305998
0x48a2f0293cacdd3325b4507ad54a90c9807fdace317d76d115ae3bedad69b763Claim239832892022-01-21 10:28:32248 days 21 hrs ago0x661ed5bf7686c494c4fdc94daa582b6dad52e954OUT 0x6cad6e1abc83068ea98924aef37e996ed02abf1c0 MATIC0.00927185624 43.411224918
0x27f90f3aa43336210c8dc1dd154dc19d0e81c331020e0c1f9aa2cfd60a479464Mint237487152022-01-15 13:34:46254 days 18 hrs ago0x661ed5bf7686c494c4fdc94daa582b6dad52e954OUT 0x30ecef47957f6823c6b2929747bc19d765efee260 MATIC0.0031635630
0x51e584d8309eef239658a78b6f02f77996184cb44cdee4f51774885f70ab3b62Forge234786952022-01-08 12:02:27261 days 20 hrs ago0x661ed5bf7686c494c4fdc94daa582b6dad52e954OUT 0xdeb1f826c512eee2fa9398225a3401a0dd5311e20 MATIC0.0027921330
0xfdea6f0b634d016192f05e27f528af729eb5725329dd7d34d3704f80a05b56ddForge234786242022-01-08 12:00:01261 days 20 hrs ago0x661ed5bf7686c494c4fdc94daa582b6dad52e954OUT 0xdeb1f826c512eee2fa9398225a3401a0dd5311e20 MATIC0.0010354530
0x64ef64632696813dcd9facf7385321a6a4422b13b5da69ac1e02bfc9701bf05fForge234786242022-01-08 12:00:01261 days 20 hrs ago0x661ed5bf7686c494c4fdc94daa582b6dad52e954OUT 0xdeb1f826c512eee2fa9398225a3401a0dd5311e20 MATIC0.0010354530
0x728c8cdf071defd2a2fdb766b06021507dcf0aa5bdc6f685777d68d15da4f980Forge234786242022-01-08 12:00:01261 days 20 hrs ago0x661ed5bf7686c494c4fdc94daa582b6dad52e954OUT 0xdeb1f826c512eee2fa9398225a3401a0dd5311e20 MATIC0.0010354530
0x00648b3202c23b3624c2cb2eb940249704b39ea220054073c53d91defec1c66bForge234786232022-01-08 11:59:59261 days 20 hrs ago0x661ed5bf7686c494c4fdc94daa582b6dad52e954OUT 0xdeb1f826c512eee2fa9398225a3401a0dd5311e20 MATIC0.00030711123.3
0x40ba395c505e05313e5c20b9fabbe51af9fdc75f3e52081d5da436e6ee90af99Safe Transfer Fr...234773952022-01-08 11:15:38261 days 20 hrs ago0x661ed5bf7686c494c4fdc94daa582b6dad52e954OUT 0x7d50438541461b2397b1b0915c23740c4aa6e6cb0 MATIC0.0012581730
0xff226a4b838de4f9a0f63a8a8cad321c495a6f80d8aeecd37aa52da16218c91fSet Approval For...234773172022-01-08 11:12:58261 days 20 hrs ago0x661ed5bf7686c494c4fdc94daa582b6dad52e954OUT 0x7d50438541461b2397b1b0915c23740c4aa6e6cb0 MATIC0.0013871730
0x30eaf21f5cba8b65a76351d385258a929f452cc1007266b5752cb21039a683a3Claim Batch234771232022-01-08 11:06:18261 days 21 hrs ago0x661ed5bf7686c494c4fdc94daa582b6dad52e954OUT 0xdeb1f826c512eee2fa9398225a3401a0dd5311e20 MATIC0.0107002830
0xea46b096e99fe80a9e0250670fbb6c12a7ccde3ba1c3eeb638027ef532d8cefeClaim Batch234763292022-01-08 10:36:50261 days 21 hrs ago0x661ed5bf7686c494c4fdc94daa582b6dad52e954OUT 0xdeb1f826c512eee2fa9398225a3401a0dd5311e20 MATIC0.0107011530
0xb8155f5d6bb38840e277e43e08b1721e4bad923c7247d0ab2c5abbd01b5b49c8Multi Swap234754552022-01-08 10:06:46261 days 22 hrs ago0x661ed5bf7686c494c4fdc94daa582b6dad52e954OUT Paraswap v5: Augustus Swapper3 MATIC0.081041818517
0x5ae7d6e28bda6f9f48514a1c25c20a36e6cce717fdb488ac4ea601ca3ffa5f4bTransfer234752122022-01-08 9:56:46261 days 22 hrs ago0x3eacc3aa10781daf4539b4387b7f52948659e8f4 IN 0x661ed5bf7686c494c4fdc94daa582b6dad52e9544 MATIC0.0006330
0x290e32041981ac37e1d8da3fc5626672a7fc3cbd093e28badf6f847e204fd97aRedeem231353012021-12-30 8:50:24270 days 23 hrs ago0x661ed5bf7686c494c4fdc94daa582b6dad52e954OUT 0x8b1cfb508143cb13e97ac43f24309b76fd5fbddb0 MATIC0.0013249230
0x41ef301eb4cc62f2c56ad700bd622a01879e7b77e4016aa2bdf4f719cbab2be1Transfer230263092021-12-27 14:12:10273 days 17 hrs ago0x661ed5bf7686c494c4fdc94daa582b6dad52e954OUT0x3eacc3aa10781daf4539b4387b7f52948659e8f40.03584869 MATIC0.0006330
0x120398535eced64fda3d91753133d51f6d62156b664f4e2814c27115e6c5cc03Deposit226711692021-12-18 13:23:56282 days 18 hrs ago0x661ed5bf7686c494c4fdc94daa582b6dad52e954OUT 0xe11678341625cd88bb25544e39b2c62cedcc83f10 MATIC0.0020029530
0x18562d040fb7ea97028e7f0e7d3ee198e157a03387e93244b204420f1b8bd0e1Approve226711402021-12-18 13:22:54282 days 18 hrs ago0x661ed5bf7686c494c4fdc94daa582b6dad52e954OUT Polygon: WMATIC Token0 MATIC0.0013825530
0x40294b1f19764792abae0072e4b8de51769dc1495fee2adecb98664d762e7bc0Deposit226711122021-12-18 13:21:58282 days 18 hrs ago0x661ed5bf7686c494c4fdc94daa582b6dad52e954OUT Polygon: WMATIC Token10 MATIC0.0013712730
0xb54c6647abda2cfc933ca6085924d02eb8a0e3a1179df2cb4909bc827b54d802Transfer226710252021-12-18 13:18:56282 days 18 hrs ago0x082489a616ab4d46d1947ee3f912e080815b08da IN 0x661ed5bf7686c494c4fdc94daa582b6dad52e95410 MATIC0.00201696
0xee33a7feb85d494cb28d836c5813c305aa31954aba7a2ec05520a956f59cc2f2Transfer226600282021-12-18 6:31:59283 days 1 hr ago0x661ed5bf7686c494c4fdc94daa582b6dad52e954OUT0xc18bd0a3769a710384e93812d2cc586de18c74870.03 MATIC0.00009244.4
0xea313fa35de92df0c34de7a58cdcffe3c368057ca2600966f4793fff3dd01af8Transfer226600262021-12-18 6:31:55283 days 1 hr ago0x661ed5bf7686c494c4fdc94daa582b6dad52e954OUT0x7bb25b97582b2e48a688bbc4b14551b39251d33e0.03 MATIC0.00009244.4
0x0c452d79d3a1ca2e0d030743f844dab3c4dec55ed51fa8c456f206cd2cd9afddTransfer226600182021-12-18 6:31:39283 days 1 hr ago0x661ed5bf7686c494c4fdc94daa582b6dad52e954OUT0x2ffca82ca5906dfb25542b61e4ce5dd7ed77e03a0.03 MATIC0.00009244.4
[ Download CSV Export 
Latest 1 internal transaction
Parent Txn Hash Block From To Value
0x290e32041981ac37e1d8da3fc5626672a7fc3cbd093e28badf6f847e204fd97a231353012021-12-30 8:50:24270 days 23 hrs ago 0x8b1cfb508143cb13e97ac43f24309b76fd5fbddb0x661ed5bf7686c494c4fdc94daa582b6dad52e9540.005 MATIC
[ Download CSV Export 
Loading

Contract Name:
0 MATIC

Compiler Version
0

Optimization Enabled:
0 MATIC

Other Settings:
-NA-
Block Transaction Gas Used Reward
Age Block Fee Address BC Fee Address Voting Power Jailed Incoming
Block Uncle Number Difficulty Gas Used Reward
Loading
Loading
Make sure to use the "Vote Down" button for any spammy posts, and the "Vote Up" for interesting conversations.